sensor_id;sensor_type;location;lat;lon;timestamp;temperature;humidity
75893;DHT22;64572;50.950;3.676;2023-04-03T00:00:57;1.80;99.90
75893;DHT22;64572;50.950;3.676;2023-04-03T00:03:23;1.90;99.90
75893;DHT22;64572;50.950;3.676;2023-04-03T00:05:48;2.00;99.90
75893;DHT22;64572;50.950;3.676;2023-04-03T00:08:14;2.10;99.90
75893;DHT22;64572;50.950;3.676;2023-04-03T00:10:40;2.20;99.90
75893;DHT22;64572;50.950;3.676;2023-04-03T00:13:07;2.30;99.90
75893;DHT22;64572;50.950;3.676;2023-04-03T00:15:37;2.30;99.90
75893;DHT22;64572;50.950;3.676;2023-04-03T00:18:09;2.30;99.90
75893;DHT22;64572;50.950;3.676;2023-04-03T00:20:35;2.40;99.90
75893;DHT22;64572;50.950;3.676;2023-04-03T00:23:01;2.30;99.90
75893;DHT22;64572;50.950;3.676;2023-04-03T00:25:27;2.20;99.90
75893;DHT22;64572;50.950;3.676;2023-04-03T00:27:53;2.00;99.90
75893;DHT22;64572;50.950;3.676;2023-04-03T00:30:21;1.90;99.90
75893;DHT22;64572;50.950;3.676;2023-04-03T00:32:51;1.80;99.90
75893;DHT22;64572;50.950;3.676;2023-04-03T00:35:17;1.80;99.90
75893;DHT22;64572;50.950;3.676;2023-04-03T00:37:44;1.60;99.90
75893;DHT22;64572;50.950;3.676;2023-04-03T00:40:10;1.50;99.90
75893;DHT22;64572;50.950;3.676;2023-04-03T00:42:38;1.40;99.90
75893;DHT22;64572;50.950;3.676;2023-04-03T00:47:30;1.70;99.90
75893;DHT22;64572;50.950;3.676;2023-04-03T00:49:58;1.80;99.90
75893;DHT22;64572;50.950;3.676;2023-04-03T00:52:28;1.60;99.90
75893;DHT22;64572;50.950;3.676;2023-04-03T00:54:59;1.40;99.90
75893;DHT22;64572;50.950;3.676;2023-04-03T00:57:27;1.20;99.90
75893;DHT22;64572;50.950;3.676;2023-04-03T01:00:05;1.00;99.90
75893;DHT22;64572;50.950;3.676;2023-04-03T01:02:32;0.90;99.90
75893;DHT22;64572;50.950;3.676;2023-04-03T01:04:58;1.00;99.90
75893;DHT22;64572;50.950;3.676;2023-04-03T01:07:28;1.20;99.90
75893;DHT22;64572;50.950;3.676;2023-04-03T01:09:58;1.30;99.90
75893;DHT22;64572;50.950;3.676;2023-04-03T01:12:32;1.40;99.90
75893;DHT22;64572;50.950;3.676;2023-04-03T01:15:10;1.50;99.90
75893;DHT22;64572;50.950;3.676;2023-04-03T01:17:40;1.60;99.90
75893;DHT22;64572;50.950;3.676;2023-04-03T01:22:56;1.80;99.90
75893;DHT22;64572;50.950;3.676;2023-04-03T01:25:23;2.10;99.90
75893;DHT22;64572;50.950;3.676;2023-04-03T01:27:49;2.00;99.90
75893;DHT22;64572;50.950;3.676;2023-04-03T01:30:18;1.90;99.90
75893;DHT22;64572;50.950;3.676;2023-04-03T01:32:44;2.00;99.90
75893;DHT22;64572;50.950;3.676;2023-04-03T01:35:10;1.90;99.90
75893;DHT22;64572;50.950;3.676;2023-04-03T01:37:35;1.90;99.90
75893;DHT22;64572;50.950;3.676;2023-04-03T01:40:02;1.90;99.90
75893;DHT22;64572;50.950;3.676;2023-04-03T01:42:28;2.00;99.90
75893;DHT22;64572;50.950;3.676;2023-04-03T01:44:54;1.90;99.90
75893;DHT22;64572;50.950;3.676;2023-04-03T01:47:21;1.90;99.90
75893;DHT22;64572;50.950;3.676;2023-04-03T01:49:46;1.90;99.90
75893;DHT22;64572;50.950;3.676;2023-04-03T01:52:12;1.70;99.90
75893;DHT22;64572;50.950;3.676;2023-04-03T01:54:37;1.70;99.90
75893;DHT22;64572;50.950;3.676;2023-04-03T01:57:03;1.60;99.90
75893;DHT22;64572;50.950;3.676;2023-04-03T01:59:29;1.60;99.90
75893;DHT22;64572;50.950;3.676;2023-04-03T02:01:55;1.80;99.90
75893;DHT22;64572;50.950;3.676;2023-04-03T02:04:21;1.70;99.90
75893;DHT22;64572;50.950;3.676;2023-04-03T02:06:46;1.80;99.90
75893;DHT22;64572;50.950;3.676;2023-04-03T02:09:12;1.80;99.90
75893;DHT22;64572;50.950;3.676;2023-04-03T02:11:37;1.80;99.90
75893;DHT22;64572;50.950;3.676;2023-04-03T02:14:03;1.80;99.90
75893;DHT22;64572;50.950;3.676;2023-04-03T02:16:29;1.80;99.90
75893;DHT22;64572;50.950;3.676;2023-04-03T02:18:56;1.90;99.90
75893;DHT22;64572;50.950;3.676;2023-04-03T02:21:21;2.00;99.90
75893;DHT22;64572;50.950;3.676;2023-04-03T02:23:47;2.00;99.90
75893;DHT22;64572;50.950;3.676;2023-04-03T02:26:14;2.00;99.90
75893;DHT22;64572;50.950;3.676;2023-04-03T02:28:40;1.90;99.90
75893;DHT22;64572;50.950;3.676;2023-04-03T02:31:09;1.80;99.90
75893;DHT22;64572;50.950;3.676;2023-04-03T02:33:36;1.90;99.90
75893;DHT22;64572;50.950;3.676;2023-04-03T02:36:03;1.80;99.90
75893;DHT22;64572;50.950;3.676;2023-04-03T02:38:30;1.80;99.90
75893;DHT22;64572;50.950;3.676;2023-04-03T02:41:04;1.80;99.90
75893;DHT22;64572;50.950;3.676;2023-04-03T02:43:30;1.50;99.90
75893;DHT22;64572;50.950;3.676;2023-04-03T02:45:56;1.40;99.90
75893;DHT22;64572;50.950;3.676;2023-04-03T02:48:22;1.40;99.90
75893;DHT22;64572;50.950;3.676;2023-04-03T02:50:48;1.30;99.90
75893;DHT22;64572;50.950;3.676;2023-04-03T02:53:15;1.20;99.90
75893;DHT22;64572;50.950;3.676;2023-04-03T02:55:42;1.00;99.90
75893;DHT22;64572;50.950;3.676;2023-04-03T02:58:08;1.00;99.90
75893;DHT22;64572;50.950;3.676;2023-04-03T03:00:33;0.90;99.90
75893;DHT22;64572;50.950;3.676;2023-04-03T03:02:59;1.00;99.90
75893;DHT22;64572;50.950;3.676;2023-04-03T03:05:26;1.00;99.90
75893;DHT22;64572;50.950;3.676;2023-04-03T03:07:53;1.30;99.90
75893;DHT22;64572;50.950;3.676;2023-04-03T03:10:19;1.30;99.90
75893;DHT22;64572;50.950;3.676;2023-04-03T03:12:45;1.20;99.90
75893;DHT22;64572;50.950;3.676;2023-04-03T03:15:11;1.20;99.90
75893;DHT22;64572;50.950;3.676;2023-04-03T03:17:37;1.00;99.90
75893;DHT22;64572;50.950;3.676;2023-04-03T03:20:04;1.10;99.90
75893;DHT22;64572;50.950;3.676;2023-04-03T03:22:30;1.20;99.90
75893;DHT22;64572;50.950;3.676;2023-04-03T03:24:56;1.30;99.90
75893;DHT22;64572;50.950;3.676;2023-04-03T03:27:21;1.30;99.90
75893;DHT22;64572;50.950;3.676;2023-04-03T03:29:47;1.30;99.90
75893;DHT22;64572;50.950;3.676;2023-04-03T03:32:13;1.30;99.90
75893;DHT22;64572;50.950;3.676;2023-04-03T03:34:38;1.40;99.90
75893;DHT22;64572;50.950;3.676;2023-04-03T03:37:04;1.50;99.90
75893;DHT22;64572;50.950;3.676;2023-04-03T03:39:30;1.50;99.90
75893;DHT22;64572;50.950;3.676;2023-04-03T03:41:56;1.50;99.90
75893;DHT22;64572;50.950;3.676;2023-04-03T03:44:21;1.40;99.90
75893;DHT22;64572;50.950;3.676;2023-04-03T03:46:47;1.30;99.90
75893;DHT22;64572;50.950;3.676;2023-04-03T03:49:13;1.40;99.90
75893;DHT22;64572;50.950;3.676;2023-04-03T03:51:39;1.50;99.90
75893;DHT22;64572;50.950;3.676;2023-04-03T03:54:06;1.60;99.90
75893;DHT22;64572;50.950;3.676;2023-04-03T03:56:32;1.70;99.90
75893;DHT22;64572;50.950;3.676;2023-04-03T03:58:57;1.60;99.90
75893;DHT22;64572;50.950;3.676;2023-04-03T04:01:23;1.60;99.90
75893;DHT22;64572;50.950;3.676;2023-04-03T04:03:50;1.60;99.90
75893;DHT22;64572;50.950;3.676;2023-04-03T04:06:15;1.60;99.90
75893;DHT22;64572;50.950;3.676;2023-04-03T04:08:41;1.70;99.90
75893;DHT22;64572;50.950;3.676;2023-04-03T04:11:08;1.50;99.90
75893;DHT22;64572;50.950;3.676;2023-04-03T04:13:34;1.40;99.90
75893;DHT22;64572;50.950;3.676;2023-04-03T04:16:00;1.50;99.90
75893;DHT22;64572;50.950;3.676;2023-04-03T04:18:25;1.50;99.90
75893;DHT22;64572;50.950;3.676;2023-04-03T04:20:51;1.60;99.90
75893;DHT22;64572;50.950;3.676;2023-04-03T04:23:18;1.70;99.90
75893;DHT22;64572;50.950;3.676;2023-04-03T04:25:48;1.60;99.90
75893;DHT22;64572;50.950;3.676;2023-04-03T04:28:14;1.60;99.90
75893;DHT22;64572;50.950;3.676;2023-04-03T04:30:40;1.50;99.90
75893;DHT22;64572;50.950;3.676;2023-04-03T04:33:05;1.30;99.90
75893;DHT22;64572;50.950;3.676;2023-04-03T04:35:32;1.30;99.90
75893;DHT22;64572;50.950;3.676;2023-04-03T04:37:58;1.40;99.90
75893;DHT22;64572;50.950;3.676;2023-04-03T04:40:24;1.40;99.90
75893;DHT22;64572;50.950;3.676;2023-04-03T04:42:50;1.50;99.90
75893;DHT22;64572;50.950;3.676;2023-04-03T04:45:15;1.50;99.90
75893;DHT22;64572;50.950;3.676;2023-04-03T04:47:41;1.50;99.90
75893;DHT22;64572;50.950;3.676;2023-04-03T04:50:08;1.40;99.90
75893;DHT22;64572;50.950;3.676;2023-04-03T04:52:34;1.50;99.90
75893;DHT22;64572;50.950;3.676;2023-04-03T04:54:59;1.50;99.90
75893;DHT22;64572;50.950;3.676;2023-04-03T04:57:26;1.50;99.90
75893;DHT22;64572;50.950;3.676;2023-04-03T04:59:51;1.50;99.90
75893;DHT22;64572;50.950;3.676;2023-04-03T05:02:17;1.50;99.90
75893;DHT22;64572;50.950;3.676;2023-04-03T05:04:43;1.40;99.90
75893;DHT22;64572;50.950;3.676;2023-04-03T05:07:08;1.30;99.90
75893;DHT22;64572;50.950;3.676;2023-04-03T05:09:34;1.30;99.90
75893;DHT22;64572;50.950;3.676;2023-04-03T05:12:00;1.30;99.90
75893;DHT22;64572;50.950;3.676;2023-04-03T05:14:25;1.10;99.90
75893;DHT22;64572;50.950;3.676;2023-04-03T05:16:51;1.00;99.90
75893;DHT22;64572;50.950;3.676;2023-04-03T05:19:22;1.10;99.90
75893;DHT22;64572;50.950;3.676;2023-04-03T05:21:47;1.10;99.90
75893;DHT22;64572;50.950;3.676;2023-04-03T05:24:14;1.30;99.90
75893;DHT22;64572;50.950;3.676;2023-04-03T05:26:42;1.30;99.90
75893;DHT22;64572;50.950;3.676;2023-04-03T05:29:08;1.30;99.90
75893;DHT22;64572;50.950;3.676;2023-04-03T05:31:34;1.20;99.90
75893;DHT22;64572;50.950;3.676;2023-04-03T05:34:00;1.30;99.90
75893;DHT22;64572;50.950;3.676;2023-04-03T05:36:25;1.20;99.90
75893;DHT22;64572;50.950;3.676;2023-04-03T05:38:51;1.10;99.90
75893;DHT22;64572;50.950;3.676;2023-04-03T05:41:17;1.10;99.90
75893;DHT22;64572;50.950;3.676;2023-04-03T05:43:43;1.30;99.90
75893;DHT22;64572;50.950;3.676;2023-04-03T05:46:15;1.40;99.90
75893;DHT22;64572;50.950;3.676;2023-04-03T05:48:41;1.40;99.90
75893;DHT22;64572;50.950;3.676;2023-04-03T05:51:16;1.50;99.90
75893;DHT22;64572;50.950;3.676;2023-04-03T05:53:43;1.40;99.90
75893;DHT22;64572;50.950;3.676;2023-04-03T05:56:08;1.40;99.90
75893;DHT22;64572;50.950;3.676;2023-04-03T05:58:34;1.50;99.90
75893;DHT22;64572;50.950;3.676;2023-04-03T06:01:00;1.60;99.90
75893;DHT22;64572;50.950;3.676;2023-04-03T06:03:26;1.80;99.90
75893;DHT22;64572;50.950;3.676;2023-04-03T06:05:52;1.90;99.90
75893;DHT22;64572;50.950;3.676;2023-04-03T06:08:18;2.00;99.90
75893;DHT22;64572;50.950;3.676;2023-04-03T06:10:44;2.10;99.90
75893;DHT22;64572;50.950;3.676;2023-04-03T06:13:10;2.20;99.90
75893;DHT22;64572;50.950;3.676;2023-04-03T06:15:36;2.30;99.90
75893;DHT22;64572;50.950;3.676;2023-04-03T06:18:02;2.40;99.90
75893;DHT22;64572;50.950;3.676;2023-04-03T06:20:28;2.50;99.90
75893;DHT22;64572;50.950;3.676;2023-04-03T06:22:53;2.50;99.90
75893;DHT22;64572;50.950;3.676;2023-04-03T06:25:19;2.60;99.90
75893;DHT22;64572;50.950;3.676;2023-04-03T06:27:45;2.60;99.90
75893;DHT22;64572;50.950;3.676;2023-04-03T06:30:11;2.80;99.90
75893;DHT22;64572;50.950;3.676;2023-04-03T06:32:37;2.90;99.90
75893;DHT22;64572;50.950;3.676;2023-04-03T06:35:04;3.00;99.90
75893;DHT22;64572;50.950;3.676;2023-04-03T06:37:31;3.10;99.90
75893;DHT22;64572;50.950;3.676;2023-04-03T06:39:58;3.30;99.90
75893;DHT22;64572;50.950;3.676;2023-04-03T06:42:24;3.50;99.90
75893;DHT22;64572;50.950;3.676;2023-04-03T06:44:49;3.60;99.90
75893;DHT22;64572;50.950;3.676;2023-04-03T06:47:16;3.70;99.90
75893;DHT22;64572;50.950;3.676;2023-04-03T06:49:42;3.80;99.90
75893;DHT22;64572;50.950;3.676;2023-04-03T06:52:09;3.80;99.90
75893;DHT22;64572;50.950;3.676;2023-04-03T06:54:35;3.80;99.90
75893;DHT22;64572;50.950;3.676;2023-04-03T06:57:01;4.00;99.90
75893;DHT22;64572;50.950;3.676;2023-04-03T06:59:27;4.00;99.90
75893;DHT22;64572;50.950;3.676;2023-04-03T07:01:53;4.10;99.90
75893;DHT22;64572;50.950;3.676;2023-04-03T07:04:19;4.20;99.90
75893;DHT22;64572;50.950;3.676;2023-04-03T07:06:49;4.30;99.90
75893;DHT22;64572;50.950;3.676;2023-04-03T07:09:14;4.40;99.90
75893;DHT22;64572;50.950;3.676;2023-04-03T07:11:40;4.50;99.90
75893;DHT22;64572;50.950;3.676;2023-04-03T07:14:06;4.60;99.90
75893;DHT22;64572;50.950;3.676;2023-04-03T07:16:34;4.60;99.90
75893;DHT22;64572;50.950;3.676;2023-04-03T07:19:01;4.80;99.90
75893;DHT22;64572;50.950;3.676;2023-04-03T07:21:27;4.90;99.90
75893;DHT22;64572;50.950;3.676;2023-04-03T07:23:53;5.00;99.90
75893;DHT22;64572;50.950;3.676;2023-04-03T07:26:19;5.10;99.90
75893;DHT22;64572;50.950;3.676;2023-04-03T07:28:46;5.20;99.90
75893;DHT22;64572;50.950;3.676;2023-04-03T07:31:15;5.40;99.90
75893;DHT22;64572;50.950;3.676;2023-04-03T07:33:41;5.50;99.90
75893;DHT22;64572;50.950;3.676;2023-04-03T07:36:09;5.60;99.90
75893;DHT22;64572;50.950;3.676;2023-04-03T07:38:35;5.70;99.90
75893;DHT22;64572;50.950;3.676;2023-04-03T07:41:01;5.70;99.90
75893;DHT22;64572;50.950;3.676;2023-04-03T07:43:27;5.80;99.90
75893;DHT22;64572;50.950;3.676;2023-04-03T07:45:53;5.90;99.90
75893;DHT22;64572;50.950;3.676;2023-04-03T07:48:24;6.00;99.90
75893;DHT22;64572;50.950;3.676;2023-04-03T07:50:51;6.20;99.90
75893;DHT22;64572;50.950;3.676;2023-04-03T07:53:18;6.30;99.90
75893;DHT22;64572;50.950;3.676;2023-04-03T07:55:47;6.40;99.90
75893;DHT22;64572;50.950;3.676;2023-04-03T07:58:16;6.50;99.90
75893;DHT22;64572;50.950;3.676;2023-04-03T08:00:42;6.60;99.90
75893;DHT22;64572;50.950;3.676;2023-04-03T08:03:10;6.60;99.90
75893;DHT22;64572;50.950;3.676;2023-04-03T08:05:40;6.70;99.90
75893;DHT22;64572;50.950;3.676;2023-04-03T08:08:08;6.70;99.90
75893;DHT22;64572;50.950;3.676;2023-04-03T08:10:34;6.80;99.90
75893;DHT22;64572;50.950;3.676;2023-04-03T08:13:01;6.80;99.90
75893;DHT22;64572;50.950;3.676;2023-04-03T08:15:27;6.90;99.90
75893;DHT22;64572;50.950;3.676;2023-04-03T08:17:53;7.10;99.90
75893;DHT22;64572;50.950;3.676;2023-04-03T08:20:19;7.30;99.90
75893;DHT22;64572;50.950;3.676;2023-04-03T08:22:44;7.40;99.90
75893;DHT22;64572;50.950;3.676;2023-04-03T08:25:10;7.60;99.90
75893;DHT22;64572;50.950;3.676;2023-04-03T08:27:38;7.80;99.90
75893;DHT22;64572;50.950;3.676;2023-04-03T08:30:05;7.90;98.90
75893;DHT22;64572;50.950;3.676;2023-04-03T08:32:33;8.00;99.20
75893;DHT22;64572;50.950;3.676;2023-04-03T08:35:00;8.10;98.30
75893;DHT22;64572;50.950;3.676;2023-04-03T08:37:25;8.10;98.40
75893;DHT22;64572;50.950;3.676;2023-04-03T08:39:51;8.10;98.10
75893;DHT22;64572;50.950;3.676;2023-04-03T08:48:07;8.30;98.60
75893;DHT22;64572;50.950;3.676;2023-04-03T08:50:41;8.40;97.70
75893;DHT22;64572;50.950;3.676;2023-04-03T08:53:17;8.70;98.70
75893;DHT22;64572;50.950;3.676;2023-04-03T08:55:49;9.10;95.50
75893;DHT22;64572;50.950;3.676;2023-04-03T08:58:19;10.30;93.40
75893;DHT22;64572;50.950;3.676;2023-04-03T09:03:15;13.00;75.20
75893;DHT22;64572;50.950;3.676;2023-04-03T09:05:53;14.40;70.40
75893;DHT22;64572;50.950;3.676;2023-04-03T09:11:24;15.60;59.30
75893;DHT22;64572;50.950;3.676;2023-04-03T09:16:59;18.00;50.50
75893;DHT22;64572;50.950;3.676;2023-04-03T09:22:17;21.00;42.30
75893;DHT22;64572;50.950;3.676;2023-04-03T09:24:47;22.20;39.30
75893;DHT22;64572;50.950;3.676;2023-04-03T09:27:14;21.20;40.00
75893;DHT22;64572;50.950;3.676;2023-04-03T09:29:41;21.20;38.50
75893;DHT22;64572;50.950;3.676;2023-04-03T09:32:28;21.90;36.20
75893;DHT22;64572;50.950;3.676;2023-04-03T09:34:59;21.60;36.10
75893;DHT22;64572;50.950;3.676;2023-04-03T09:37:41;21.60;37.90
75893;DHT22;64572;50.950;3.676;2023-04-03T09:40:37;21.80;35.10
75893;DHT22;64572;50.950;3.676;2023-04-03T09:45:51;22.50;36.50
75893;DHT22;64572;50.950;3.676;2023-04-03T09:48:25;23.00;34.40
75893;DHT22;64572;50.950;3.676;2023-04-03T09:55:57;21.90;36.50
75893;DHT22;64572;50.950;3.676;2023-04-03T09:58:36;22.60;35.80
75893;DHT22;64572;50.950;3.676;2023-04-03T10:01:03;21.20;36.30
75893;DHT22;64572;50.950;3.676;2023-04-03T10:03:34;21.70;36.70
75893;DHT22;64572;50.950;3.676;2023-04-03T10:06:22;21.90;35.20
75893;DHT22;64572;50.950;3.676;2023-04-03T10:09:00;22.20;38.20
75893;DHT22;64572;50.950;3.676;2023-04-03T10:11:26;21.20;38.30
75893;DHT22;64572;50.950;3.676;2023-04-03T10:14:00;21.20;38.10
75893;DHT22;64572;50.950;3.676;2023-04-03T10:30:19;22.00;37.00
75893;DHT22;64572;50.950;3.676;2023-04-03T10:41:42;20.30;39.80
75893;DHT22;64572;50.950;3.676;2023-04-03T10:52:23;20.50;38.60
75893;DHT22;64572;50.950;3.676;2023-04-03T10:55:14;21.20;36.50
75893;DHT22;64572;50.950;3.676;2023-04-03T10:57:48;21.70;35.70
75893;DHT22;64572;50.950;3.676;2023-04-03T11:00:21;21.00;38.00
75893;DHT22;64572;50.950;3.676;2023-04-03T11:02:56;20.70;37.50
75893;DHT22;64572;50.950;3.676;2023-04-03T11:07:53;21.80;35.30
75893;DHT22;64572;50.950;3.676;2023-04-03T11:10:27;21.90;36.80
75893;DHT22;64572;50.950;3.676;2023-04-03T11:13:04;23.10;33.70
75893;DHT22;64572;50.950;3.676;2023-04-03T11:15:32;22.90;33.00
75893;DHT22;64572;50.950;3.676;2023-04-03T11:18:11;22.30;32.90
75893;DHT22;64572;50.950;3.676;2023-04-03T11:20:42;21.50;35.00
75893;DHT22;64572;50.950;3.676;2023-04-03T11:23:21;23.40;35.10
75893;DHT22;64572;50.950;3.676;2023-04-03T11:25:51;22.00;34.10
75893;DHT22;64572;50.950;3.676;2023-04-03T11:28:17;20.80;35.00
75893;DHT22;64572;50.950;3.676;2023-04-03T11:36:18;22.10;34.80
75893;DHT22;64572;50.950;3.676;2023-04-03T11:38:45;22.30;35.80
75893;DHT22;64572;50.950;3.676;2023-04-03T11:41:13;23.40;33.60
75893;DHT22;64572;50.950;3.676;2023-04-03T11:43:46;22.50;33.90
75893;DHT22;64572;50.950;3.676;2023-04-03T11:46:20;22.70;33.40
75893;DHT22;64572;50.950;3.676;2023-04-03T11:48:49;22.10;32.60
75893;DHT22;64572;50.950;3.676;2023-04-03T11:53:46;21.80;37.10
75893;DHT22;64572;50.950;3.676;2023-04-03T12:01:45;20.20;34.10
75893;DHT22;64572;50.950;3.676;2023-04-03T12:04:13;20.70;34.40
75893;DHT22;64572;50.950;3.676;2023-04-03T12:06:41;20.70;33.40
75893;DHT22;64572;50.950;3.676;2023-04-03T12:09:33;21.70;34.70
75893;DHT22;64572;50.950;3.676;2023-04-03T12:12:01;22.30;33.10
75893;DHT22;64572;50.950;3.676;2023-04-03T12:14:46;21.80;32.10
75893;DHT22;64572;50.950;3.676;2023-04-03T12:17:25;20.10;34.20
75893;DHT22;64572;50.950;3.676;2023-04-03T12:19:52;20.30;33.50
75893;DHT22;64572;50.950;3.676;2023-04-03T12:22:20;20.70;34.50
75893;DHT22;64572;50.950;3.676;2023-04-03T12:24:47;20.40;33.80
75893;DHT22;64572;50.950;3.676;2023-04-03T12:27:34;22.40;32.30
75893;DHT22;64572;50.950;3.676;2023-04-03T12:40:44;22.40;32.50
75893;DHT22;64572;50.950;3.676;2023-04-03T12:51:27;26.00;30.10
75893;DHT22;64572;50.950;3.676;2023-04-03T12:56:42;24.80;29.40
75893;DHT22;64572;50.950;3.676;2023-04-03T12:59:23;26.00;29.00
75893;DHT22;64572;50.950;3.676;2023-04-03T13:01:55;27.50;28.60
75893;DHT22;64572;50.950;3.676;2023-04-03T13:04:22;28.10;28.60
75893;DHT22;64572;50.950;3.676;2023-04-03T13:06:48;27.40;28.10
75893;DHT22;64572;50.950;3.676;2023-04-03T13:09:30;25.00;30.20
75893;DHT22;64572;50.950;3.676;2023-04-03T13:11:57;23.90;30.00
75893;DHT22;64572;50.950;3.676;2023-04-03T13:14:25;24.30;32.90
75893;DHT22;64572;50.950;3.676;2023-04-03T13:16:58;24.40;31.80
75893;DHT22;64572;50.950;3.676;2023-04-03T13:19:25;24.10;30.90
75893;DHT22;64572;50.950;3.676;2023-04-03T13:21:54;23.80;32.30
75893;DHT22;64572;50.950;3.676;2023-04-03T13:24:22;22.30;31.60
75893;DHT22;64572;50.950;3.676;2023-04-03T13:26:48;24.20;29.20
75893;DHT22;64572;50.950;3.676;2023-04-03T13:29:31;25.60;29.40
75893;DHT22;64572;50.950;3.676;2023-04-03T13:31:58;23.90;31.00
75893;DHT22;64572;50.950;3.676;2023-04-03T13:34:37;23.80;30.20
75893;DHT22;64572;50.950;3.676;2023-04-03T13:37:04;23.40;32.40
75893;DHT22;64572;50.950;3.676;2023-04-03T13:39:32;23.70;29.50
75893;DHT22;64572;50.950;3.676;2023-04-03T13:42:15;24.50;30.20
75893;DHT22;64572;50.950;3.676;2023-04-03T13:44:41;24.80;29.80
75893;DHT22;64572;50.950;3.676;2023-04-03T13:47:15;23.90;29.60
75893;DHT22;64572;50.950;3.676;2023-04-03T13:50:13;23.50;28.80
75893;DHT22;64572;50.950;3.676;2023-04-03T13:52:39;23.30;29.20
75893;DHT22;64572;50.950;3.676;2023-04-03T13:55:35;22.50;31.10
75893;DHT22;64572;50.950;3.676;2023-04-03T13:58:22;23.00;28.70
75893;DHT22;64572;50.950;3.676;2023-04-03T14:03:51;24.40;30.40
75893;DHT22;64572;50.950;3.676;2023-04-03T14:06:17;24.50;29.70
75893;DHT22;64572;50.950;3.676;2023-04-03T14:08:45;25.20;28.50
75893;DHT22;64572;50.950;3.676;2023-04-03T14:11:22;25.30;27.20
75893;DHT22;64572;50.950;3.676;2023-04-03T14:13:50;27.20;27.30
75893;DHT22;64572;50.950;3.676;2023-04-03T14:16:19;25.50;27.40
75893;DHT22;64572;50.950;3.676;2023-04-03T14:18:46;25.50;27.90
75893;DHT22;64572;50.950;3.676;2023-04-03T14:21:15;25.00;27.70
75893;DHT22;64572;50.950;3.676;2023-04-03T14:23:41;24.70;27.40
75893;DHT22;64572;50.950;3.676;2023-04-03T14:26:33;24.60;28.10
75893;DHT22;64572;50.950;3.676;2023-04-03T14:28:59;23.60;28.20
75893;DHT22;64572;50.950;3.676;2023-04-03T14:31:25;23.70;28.20
75893;DHT22;64572;50.950;3.676;2023-04-03T14:33:50;24.30;27.70
75893;DHT22;64572;50.950;3.676;2023-04-03T14:36:27;22.90;27.90
75893;DHT22;64572;50.950;3.676;2023-04-03T14:38:53;23.00;28.30
75893;DHT22;64572;50.950;3.676;2023-04-03T14:41:21;23.30;27.00
75893;DHT22;64572;50.950;3.676;2023-04-03T14:43:48;23.70;27.40
75893;DHT22;64572;50.950;3.676;2023-04-03T14:46:24;24.30;28.50
75893;DHT22;64572;50.950;3.676;2023-04-03T14:48:52;24.30;26.90
75893;DHT22;64572;50.950;3.676;2023-04-03T14:51:17;23.80;27.10
75893;DHT22;64572;50.950;3.676;2023-04-03T14:53:44;23.30;29.00
75893;DHT22;64572;50.950;3.676;2023-04-03T14:56:20;22.80;28.50
75893;DHT22;64572;50.950;3.676;2023-04-03T14:58:48;22.20;28.30
75893;DHT22;64572;50.950;3.676;2023-04-03T15:01:16;21.10;29.60
75893;DHT22;64572;50.950;3.676;2023-04-03T15:03:42;20.80;31.20
75893;DHT22;64572;50.950;3.676;2023-04-03T15:06:11;20.70;30.80
75893;DHT22;64572;50.950;3.676;2023-04-03T15:08:37;21.70;30.70
75893;DHT22;64572;50.950;3.676;2023-04-03T15:11:03;22.50;29.00
75893;DHT22;64572;50.950;3.676;2023-04-03T15:13:28;21.40;29.80
75893;DHT22;64572;50.950;3.676;2023-04-03T15:15:54;20.70;30.50
75893;DHT22;64572;50.950;3.676;2023-04-03T15:18:26;20.00;31.30
75893;DHT22;64572;50.950;3.676;2023-04-03T15:20:53;19.40;31.90
75893;DHT22;64572;50.950;3.676;2023-04-03T15:23:20;19.80;31.60
75893;DHT22;64572;50.950;3.676;2023-04-03T15:25:51;21.10;30.30
75893;DHT22;64572;50.950;3.676;2023-04-03T15:28:28;21.70;30.30
75893;DHT22;64572;50.950;3.676;2023-04-03T15:30:55;21.40;30.30
75893;DHT22;64572;50.950;3.676;2023-04-03T15:33:22;21.90;30.70
75893;DHT22;64572;50.950;3.676;2023-04-03T15:35:48;22.20;29.50
75893;DHT22;64572;50.950;3.676;2023-04-03T15:38:14;21.90;30.00
75893;DHT22;64572;50.950;3.676;2023-04-03T15:40:40;21.50;29.40
75893;DHT22;64572;50.950;3.676;2023-04-03T15:43:06;20.50;30.20
75893;DHT22;64572;50.950;3.676;2023-04-03T15:45:33;20.30;31.50
75893;DHT22;64572;50.950;3.676;2023-04-03T15:48:01;20.30;30.00
75893;DHT22;64572;50.950;3.676;2023-04-03T15:50:27;21.00;31.10
75893;DHT22;64572;50.950;3.676;2023-04-03T15:52:53;20.10;30.60
75893;DHT22;64572;50.950;3.676;2023-04-03T15:55:25;20.20;31.50
75893;DHT22;64572;50.950;3.676;2023-04-03T15:57:51;19.70;31.80
75893;DHT22;64572;50.950;3.676;2023-04-03T16:00:17;19.10;31.30
75893;DHT22;64572;50.950;3.676;2023-04-03T16:02:45;19.10;32.60
75893;DHT22;64572;50.950;3.676;2023-04-03T16:05:12;19.30;31.70
75893;DHT22;64572;50.950;3.676;2023-04-03T16:07:39;20.10;30.20
75893;DHT22;64572;50.950;3.676;2023-04-03T16:10:06;19.60;32.50
75893;DHT22;64572;50.950;3.676;2023-04-03T16:12:32;19.00;32.30
75893;DHT22;64572;50.950;3.676;2023-04-03T16:14:57;18.20;33.20
75893;DHT22;64572;50.950;3.676;2023-04-03T16:17:23;17.80;32.60
75893;DHT22;64572;50.950;3.676;2023-04-03T16:19:49;17.40;32.60
75893;DHT22;64572;50.950;3.676;2023-04-03T16:22:14;17.60;33.40
75893;DHT22;64572;50.950;3.676;2023-04-03T16:24:40;18.20;32.50
75893;DHT22;64572;50.950;3.676;2023-04-03T16:27:06;18.70;31.70
75893;DHT22;64572;50.950;3.676;2023-04-03T16:29:32;19.20;31.50
75893;DHT22;64572;50.950;3.676;2023-04-03T16:31:58;18.80;31.40
75893;DHT22;64572;50.950;3.676;2023-04-03T16:34:24;18.70;31.20
75893;DHT22;64572;50.950;3.676;2023-04-03T16:36:51;19.20;31.30
75893;DHT22;64572;50.950;3.676;2023-04-03T16:39:18;18.70;31.40
75893;DHT22;64572;50.950;3.676;2023-04-03T16:41:44;18.10;31.80
75893;DHT22;64572;50.950;3.676;2023-04-03T16:44:10;17.80;34.10
75893;DHT22;64572;50.950;3.676;2023-04-03T16:46:36;17.20;34.30
75893;DHT22;64572;50.950;3.676;2023-04-03T16:49:02;17.40;33.90
75893;DHT22;64572;50.950;3.676;2023-04-03T16:51:28;17.20;34.00
75893;DHT22;64572;50.950;3.676;2023-04-03T16:53:53;16.50;34.60
75893;DHT22;64572;50.950;3.676;2023-04-03T16:56:19;16.30;32.70
75893;DHT22;64572;50.950;3.676;2023-04-03T16:58:45;15.30;35.00
75893;DHT22;64572;50.950;3.676;2023-04-03T17:01:16;14.30;37.70
75893;DHT22;64572;50.950;3.676;2023-04-03T17:03:43;13.60;37.90
75893;DHT22;64572;50.950;3.676;2023-04-03T17:06:11;13.40;39.50
75893;DHT22;64572;50.950;3.676;2023-04-03T17:08:42;12.80;39.90
75893;DHT22;64572;50.950;3.676;2023-04-03T17:11:08;12.70;40.70
75893;DHT22;64572;50.950;3.676;2023-04-03T17:13:34;12.20;39.70
75893;DHT22;64572;50.950;3.676;2023-04-03T17:16:01;12.00;40.20
75893;DHT22;64572;50.950;3.676;2023-04-03T17:18:30;11.90;39.20
75893;DHT22;64572;50.950;3.676;2023-04-03T17:20:56;11.60;40.50
75893;DHT22;64572;50.950;3.676;2023-04-03T17:23:24;11.40;41.20
75893;DHT22;64572;50.950;3.676;2023-04-03T17:25:50;11.30;41.50
75893;DHT22;64572;50.950;3.676;2023-04-03T17:28:16;11.30;42.70